Portada
METAR-TAF:

METAR-TAF

Aeroports :

Aeroport de la Ciutat de Londres

Londres, Anglaterra

latitud: 51-30N, longitud: 000-03E, altitud: 5 m

Observació

L'informe es va fer fa 33 minuts, a les 08:20 UTC
Vent 9 kt del Oest/Sud-Oest, variant entre Sud/Sud-Oest i Oest
Temperatura 18°C
Humitat 64%
Pressió 1025 hPa
Visibilitat 10 km o més

METAR: EGLC 220820Z AUTO 24009KT 210V280 9999 NCD 18/11 Q1025

Hora: 09:53 (08:53 UTC)

Pronòstic

L'informe es va fer fa 51 minuts, a les 08:02 UTC
Pronòstic vàlid del 22 a les 09 UTC al 22 a les 18 UTC
Vent 9 kt del Oest/Sud-Oest
Visibilitat 10 km o més
Escasses núvols a una alçada de 4500 ft

TAF: EGLC 220802Z 2209/2218 24009KT 9999 FEW045

Observacions i pronòstics meteorològics de més de 4000 aeroports (METAR i TAF).

Les estacions disponibles són els punts grocs i vermells al mapa.

Posi el ratolí al punt desitjat per veure el nom de l'estació.

Feu clic per veure les observacions i els pronòstics meteorològics.

Per canviar el mapa: feu clic els botons verds amb una creu de color negre per apropar; al botó verd amb un guió per allunyar la imatge; o en les fletxes verdes per a mapes adjacents.


METAR-TAF: